Time;durP1;ratioP1;P1;durP2;ratioP2;P2;SDS_P1;SDS_P2;PMS_P1;PMS_P2;Temp;Humidity;BMP_temperature;BMP_pressure;BME280_temperature;BME280_humidity;BME280_pressure;Samples;Min_cycle;Max_cycle;Signal;HPM_P1;HPM_P2
2022/03/18 00:00:33;;;;;;;;;;;2.20;99.90;;;;;;5063061;28;20355;-69
2022/03/18 00:02:58;;;;;;;;;;;2.10;99.90;;;;;;5059421;28;20643;-70
2022/03/18 00:05:24;;;;;;;;;;;2.10;99.90;;;;;;5043779;28;19975;-69
2022/03/18 00:07:51;;;;;;;;;;;2.10;99.90;;;;;;5064054;28;19921;-67
2022/03/18 00:10:20;;;;;;;;;;;2.10;99.90;;;;;;5055063;28;19996;-67
2022/03/18 00:12:46;;;;;;;;;;;2.10;99.90;;;;;;5059847;28;19982;-67
2022/03/18 00:15:12;;;;;;;;;;;2.10;99.90;;;;;;5056959;28;19924;-68
2022/03/18 00:17:38;;;;;;;;;;;2.00;99.90;;;;;;5063739;28;19920;-69
2022/03/18 00:20:05;;;;;;;;;;;2.00;99.90;;;;;;5058210;28;19924;-68
2022/03/18 00:22:31;;;;;;;;;;;2.00;99.90;;;;;;5051319;28;20016;-69
2022/03/18 00:24:56;;;;;;;;;;;2.00;99.90;;;;;;5058392;28;19920;-68
2022/03/18 00:27:23;;;;;;;;;;;2.10;99.90;;;;;;5059816;28;19940;-68
2022/03/18 00:29:48;;;;;;;;;;;2.00;99.90;;;;;;5062441;28;20344;-68
2022/03/18 00:32:14;;;;;;;;;;;2.00;99.90;;;;;;5034761;28;19944;-68
2022/03/18 00:34:40;;;;;;;;;;;2.00;99.90;;;;;;5058512;28;19920;-68
2022/03/18 00:37:05;;;;;;;;;;;2.00;99.90;;;;;;5073681;28;19927;-67
2022/03/18 00:39:31;;;;;;;;;;;2.00;99.90;;;;;;5061684;28;19966;-68
2022/03/18 00:41:56;;;;;;;;;;;2.00;99.90;;;;;;5063949;28;19920;-68
2022/03/18 00:44:25;;;;;;;;;;;2.00;99.90;;;;;;5049623;28;19924;-67
2022/03/18 00:46:51;;;;;;;;;;;2.00;99.90;;;;;;5064518;28;19924;-68
2022/03/18 00:52:05;;;;;;;;;;;1.90;99.90;;;;;;5058806;28;19939;-68
2022/03/18 00:54:31;;;;;;;;;;;1.90;99.90;;;;;;5036755;28;19921;-67
2022/03/18 00:56:57;;;;;;;;;;;1.90;99.90;;;;;;5065914;28;19974;-68
2022/03/18 00:59:22;;;;;;;;;;;1.90;99.90;;;;;;5062557;28;19920;-68
2022/03/18 01:01:52;;;;;;;;;;;1.80;99.90;;;;;;5049436;28;19928;-67
2022/03/18 01:04:18;;;;;;;;;;;1.90;99.90;;;;;;5066491;28;19920;-67
2022/03/18 01:06:44;;;;;;;;;;;1.90;99.90;;;;;;5056998;28;20276;-68
2022/03/18 01:09:09;;;;;;;;;;;1.80;99.90;;;;;;5066736;28;19924;-68
2022/03/18 01:11:35;;;;;;;;;;;1.80;99.90;;;;;;5065357;28;19920;-68
2022/03/18 01:14:00;;;;;;;;;;;1.80;99.90;;;;;;5047550;28;19960;-68
2022/03/18 01:16:25;;;;;;;;;;;1.80;99.90;;;;;;5067590;28;20015;-68
2022/03/18 01:18:51;;;;;;;;;;;1.80;99.90;;;;;;5061647;28;19996;-68
2022/03/18 01:21:16;;;;;;;;;;;1.80;99.90;;;;;;5060705;28;19936;-67
2022/03/18 01:23:42;;;;;;;;;;;1.80;99.90;;;;;;5061551;28;20468;-68
2022/03/18 01:26:07;;;;;;;;;;;1.70;99.90;;;;;;5065498;28;19924;-67
2022/03/18 01:28:33;;;;;;;;;;;1.70;99.90;;;;;;5066749;28;19965;-69
2022/03/18 01:30:58;;;;;;;;;;;1.70;99.90;;;;;;5066886;28;19927;-68
2022/03/18 01:33:24;;;;;;;;;;;1.70;99.90;;;;;;5065212;28;20269;-68
2022/03/18 01:35:50;;;;;;;;;;;1.70;99.90;;;;;;5064401;28;19931;-69
2022/03/18 01:38:16;;;;;;;;;;;1.70;99.90;;;;;;5064600;28;19930;-68
2022/03/18 01:40:41;;;;;;;;;;;1.70;99.90;;;;;;5057642;28;19925;-68
2022/03/18 01:43:10;;;;;;;;;;;1.70;99.90;;;;;;5043472;28;19920;-68
2022/03/18 01:45:36;;;;;;;;;;;1.70;99.90;;;;;;5068902;28;19920;-68
2022/03/18 01:48:02;;;;;;;;;;;1.70;99.90;;;;;;5066631;28;20347;-69
2022/03/18 01:50:28;;;;;;;;;;;1.70;99.90;;;;;;5067065;28;20363;-68
2022/03/18 01:52:54;;;;;;;;;;;1.70;99.90;;;;;;5044318;28;19982;-69
2022/03/18 01:55:20;;;;;;;;;;;1.60;99.90;;;;;;5047819;28;20008;-69
2022/03/18 01:57:45;;;;;;;;;;;1.60;99.90;;;;;;5058960;28;19966;-69
2022/03/18 02:00:11;;;;;;;;;;;1.60;99.90;;;;;;5058792;28;19925;-68
2022/03/18 02:02:37;;;;;;;;;;;1.60;99.90;;;;;;5065247;28;20364;-70
2022/03/18 02:05:04;;;;;;;;;;;1.60;99.90;;;;;;5067259;28;19936;-68
2022/03/18 02:07:30;;;;;;;;;;;1.60;99.90;;;;;;5068119;28;19921;-69
2022/03/18 02:09:55;;;;;;;;;;;1.60;99.90;;;;;;5066935;28;20268;-69
2022/03/18 02:12:21;;;;;;;;;;;1.60;99.90;;;;;;5065557;28;19967;-69
2022/03/18 02:14:47;;;;;;;;;;;1.50;99.90;;;;;;5032720;28;20031;-68
2022/03/18 02:17:13;;;;;;;;;;;1.60;99.90;;;;;;5063992;28;19993;-69
2022/03/18 02:19:40;;;;;;;;;;;1.60;99.90;;;;;;5063795;28;19921;-70
2022/03/18 02:22:16;;;;;;;;;;;1.60;99.90;;;;;;5041652;28;19920;-69
2022/03/18 02:24:42;;;;;;;;;;;1.50;99.90;;;;;;5021773;28;19928;-69
2022/03/18 02:27:08;;;;;;;;;;;1.50;99.90;;;;;;5048858;28;20355;-69
2022/03/18 02:29:33;;;;;;;;;;;1.50;99.90;;;;;;5057271;28;19950;-69
2022/03/18 02:32:00;;;;;;;;;;;1.50;99.90;;;;;;5056905;28;19920;-69
2022/03/18 02:34:26;;;;;;;;;;;1.50;99.90;;;;;;5071740;28;20367;-68
2022/03/18 02:36:51;;;;;;;;;;;1.40;99.90;;;;;;5069664;28;19927;-70
2022/03/18 02:39:17;;;;;;;;;;;1.40;99.90;;;;;;5065837;28;19921;-69
2022/03/18 02:41:43;;;;;;;;;;;1.40;99.90;;;;;;5066272;28;19974;-68
2022/03/18 02:44:08;;;;;;;;;;;1.30;99.90;;;;;;5045380;28;19933;-68
2022/03/18 02:46:34;;;;;;;;;;;1.40;99.90;;;;;;5073091;28;19990;-68
2022/03/18 02:49:00;;;;;;;;;;;1.40;99.90;;;;;;5063659;28;19924;-68
2022/03/18 02:51:26;;;;;;;;;;;1.30;99.90;;;;;;5062908;28;20267;-68
2022/03/18 02:53:51;;;;;;;;;;;1.30;99.90;;;;;;5061438;28;19924;-68
2022/03/18 02:56:17;;;;;;;;;;;1.30;99.90;;;;;;5070996;28;19943;-68
2022/03/18 02:58:43;;;;;;;;;;;1.30;99.90;;;;;;5042847;28;19982;-68
2022/03/18 03:01:08;;;;;;;;;;;1.30;99.90;;;;;;5061970;28;19927;-68
2022/03/18 03:03:34;;;;;;;;;;;1.30;99.90;;;;;;5050172;28;19928;-68
2022/03/18 03:09:03;;;;;;;;;;;1.20;99.90;;;;;;5001085;28;19932;-68
2022/03/18 03:11:29;;;;;;;;;;;1.30;99.90;;;;;;5004054;28;20321;-68
2022/03/18 03:13:54;;;;;;;;;;;1.20;99.90;;;;;;5003801;28;20075;-68
2022/03/18 03:16:20;;;;;;;;;;;1.20;99.90;;;;;;5004411;28;19936;-69
2022/03/18 03:18:46;;;;;;;;;;;1.20;99.90;;;;;;4997136;28;20416;-68
2022/03/18 03:21:12;;;;;;;;;;;1.30;99.90;;;;;;5001403;28;19952;-68
2022/03/18 03:23:38;;;;;;;;;;;1.30;99.90;;;;;;5005511;28;19921;-68
2022/03/18 03:26:03;;;;;;;;;;;1.40;99.90;;;;;;5007000;28;19928;-68
2022/03/18 03:28:29;;;;;;;;;;;1.30;99.90;;;;;;4984236;28;19921;-68
2022/03/18 03:30:55;;;;;;;;;;;1.30;99.90;;;;;;5004735;28;19921;-68
2022/03/18 03:33:20;;;;;;;;;;;1.30;99.90;;;;;;5001030;28;20397;-69
2022/03/18 03:35:46;;;;;;;;;;;1.20;99.90;;;;;;5005815;28;20323;-68
2022/03/18 03:38:14;;;;;;;;;;;1.20;99.90;;;;;;5002665;28;19996;-69
2022/03/18 03:40:40;;;;;;;;;;;1.30;99.90;;;;;;5052483;28;20038;-69
2022/03/18 03:43:06;;;;;;;;;;;1.30;99.90;;;;;;5025060;28;20010;-69
2022/03/18 03:45:32;;;;;;;;;;;1.40;99.90;;;;;;5056814;28;19979;-70
2022/03/18 03:47:57;;;;;;;;;;;1.30;99.90;;;;;;5056314;28;20361;-69
2022/03/18 03:50:22;;;;;;;;;;;1.40;99.90;;;;;;5060794;28;19936;-69
2022/03/18 03:52:48;;;;;;;;;;;1.40;99.90;;;;;;5055670;28;19920;-68
2022/03/18 03:55:13;;;;;;;;;;;1.40;99.90;;;;;;5056750;28;20468;-69
2022/03/18 03:57:40;;;;;;;;;;;1.40;99.90;;;;;;5056740;28;19984;-68
2022/03/18 04:00:07;;;;;;;;;;;1.30;99.90;;;;;;5058413;28;19925;-69
2022/03/18 04:02:32;;;;;;;;;;;1.30;99.90;;;;;;5055726;28;20418;-67
2022/03/18 04:04:58;;;;;;;;;;;1.30;99.90;;;;;;5061850;28;19920;-68
2022/03/18 04:07:27;;;;;;;;;;;1.30;99.90;;;;;;5068140;28;20290;-67
2022/03/18 04:09:54;;;;;;;;;;;1.30;99.90;;;;;;5066476;28;19967;-67
2022/03/18 04:12:20;;;;;;;;;;;1.20;99.90;;;;;;5061625;28;19971;-69
2022/03/18 04:14:46;;;;;;;;;;;1.30;99.90;;;;;;5058672;28;19925;-69
2022/03/18 04:17:11;;;;;;;;;;;1.30;99.90;;;;;;5054747;28;19983;-68
2022/03/18 04:19:36;;;;;;;;;;;1.20;99.90;;;;;;5064357;28;19920;-69
2022/03/18 04:22:02;;;;;;;;;;;1.20;99.90;;;;;;5065930;28;19924;-68
2022/03/18 04:24:27;;;;;;;;;;;1.30;99.90;;;;;;5046488;28;20286;-68
2022/03/18 04:26:53;;;;;;;;;;;1.30;99.90;;;;;;5026227;28;19920;-68
2022/03/18 04:29:18;;;;;;;;;;;1.20;99.90;;;;;;5056073;28;20016;-69
2022/03/18 04:31:45;;;;;;;;;;;1.20;99.90;;;;;;5066393;28;19932;-69
2022/03/18 04:34:11;;;;;;;;;;;1.20;99.90;;;;;;5063871;28;19972;-69
2022/03/18 04:36:37;;;;;;;;;;;1.10;99.90;;;;;;5060916;28;19920;-68
2022/03/18 04:39:02;;;;;;;;;;;1.10;99.90;;;;;;5066947;28;19931;-68
2022/03/18 04:41:28;;;;;;;;;;;1.10;99.90;;;;;;5064364;28;19920;-69
2022/03/18 04:43:53;;;;;;;;;;;1.00;99.90;;;;;;5065196;28;20367;-68
2022/03/18 04:46:19;;;;;;;;;;;1.00;99.90;;;;;;5057468;28;20312;-68
2022/03/18 04:48:44;;;;;;;;;;;1.00;99.90;;;;;;5056154;28;19964;-69
2022/03/18 04:51:10;;;;;;;;;;;1.00;99.90;;;;;;5057172;28;19924;-69
2022/03/18 04:53:36;;;;;;;;;;;1.00;99.90;;;;;;5052307;28;19921;-70
2022/03/18 04:56:01;;;;;;;;;;;0.90;99.90;;;;;;5064614;28;20387;-69
2022/03/18 04:58:27;;;;;;;;;;;0.90;99.90;;;;;;5059320;28;20216;-68
2022/03/18 05:00:52;;;;;;;;;;;0.90;99.90;;;;;;5059724;28;20310;-68
2022/03/18 05:03:18;;;;;;;;;;;0.90;99.90;;;;;;5056925;28;19966;-68
2022/03/18 05:05:43;;;;;;;;;;;0.90;99.90;;;;;;5060425;28;19920;-68
2022/03/18 05:08:09;;;;;;;;;;;0.80;99.90;;;;;;5065453;28;19933;-68
2022/03/18 05:10:34;;;;;;;;;;;0.80;99.90;;;;;;5061502;28;20317;-68
2022/03/18 05:13:00;;;;;;;;;;;0.80;99.90;;;;;;5035320;28;19921;-68
2022/03/18 05:15:26;;;;;;;;;;;0.80;99.90;;;;;;5059983;28;19967;-68
2022/03/18 05:17:52;;;;;;;;;;;0.80;99.90;;;;;;5054832;28;20439;-69
2022/03/18 05:20:18;;;;;;;;;;;0.70;99.90;;;;;;5050390;28;19948;-68
2022/03/18 05:22:45;;;;;;;;;;;0.80;99.90;;;;;;5044689;28;19927;-68
2022/03/18 05:25:12;;;;;;;;;;;0.70;99.90;;;;;;5062965;28;19920;-68
2022/03/18 05:27:41;;;;;;;;;;;0.70;99.90;;;;;;5062949;28;19927;-68
2022/03/18 05:30:11;;;;;;;;;;;0.70;99.90;;;;;;5066628;28;19959;-68
2022/03/18 05:32:37;;;;;;;;;;;0.70;99.90;;;;;;5058670;28;19920;-68
2022/03/18 05:35:03;;;;;;;;;;;0.70;99.90;;;;;;5067546;28;20302;-68
2022/03/18 05:37:29;;;;;;;;;;;0.70;99.90;;;;;;5063649;28;19920;-68
2022/03/18 05:39:54;;;;;;;;;;;0.70;99.90;;;;;;5065087;28;19921;-68
2022/03/18 05:42:20;;;;;;;;;;;0.70;99.90;;;;;;5041290;28;20411;-69
2022/03/18 05:44:45;;;;;;;;;;;0.70;99.90;;;;;;5047839;28;20265;-68
2022/03/18 05:47:10;;;;;;;;;;;0.70;99.90;;;;;;5045871;28;19925;-69
2022/03/18 05:49:36;;;;;;;;;;;0.70;99.90;;;;;;5060703;28;20416;-68
2022/03/18 05:52:01;;;;;;;;;;;0.70;99.90;;;;;;5065917;28;19920;-69
2022/03/18 05:54:27;;;;;;;;;;;0.70;99.90;;;;;;5055809;28;19921;-68
2022/03/18 05:56:53;;;;;;;;;;;0.70;99.90;;;;;;5058701;28;20001;-68
2022/03/18 05:59:19;;;;;;;;;;;0.70;99.90;;;;;;5059222;28;19988;-68
2022/03/18 06:01:45;;;;;;;;;;;0.80;99.90;;;;;;5056517;28;20252;-70
2022/03/18 06:04:11;;;;;;;;;;;0.80;99.90;;;;;;5072866;28;19927;-69
2022/03/18 06:06:38;;;;;;;;;;;0.80;99.90;;;;;;5071105;28;19916;-68
2022/03/18 06:11:48;;;;;;;;;;;0.80;99.90;;;;;;5059067;28;19974;-69
2022/03/18 06:14:14;;;;;;;;;;;0.90;99.90;;;;;;5068698;28;20378;-68
2022/03/18 06:16:39;;;;;;;;;;;0.90;99.90;;;;;;5056858;28;19927;-70
2022/03/18 06:19:05;;;;;;;;;;;1.00;99.90;;;;;;5063667;28;19921;-69
2022/03/18 06:21:30;;;;;;;;;;;1.10;99.90;;;;;;5031284;28;21552;-68
2022/03/18 06:23:56;;;;;;;;;;;1.10;99.90;;;;;;5064139;28;20278;-69
2022/03/18 06:26:22;;;;;;;;;;;1.10;99.90;;;;;;5063281;28;19990;-69
2022/03/18 06:28:47;;;;;;;;;;;1.20;99.90;;;;;;5057836;28;19928;-69
2022/03/18 06:31:13;;;;;;;;;;;1.30;99.90;;;;;;5067428;28;20003;-69
2022/03/18 06:33:44;;;;;;;;;;;1.40;99.90;;;;;;5063594;28;20003;-69
2022/03/18 06:36:10;;;;;;;;;;;1.50;99.90;;;;;;5070868;28;19959;-69
2022/03/18 06:38:36;;;;;;;;;;;1.60;99.90;;;;;;5055695;28;19964;-68
2022/03/18 06:41:01;;;;;;;;;;;1.80;99.90;;;;;;5041680;28;19921;-69
2022/03/18 06:43:27;;;;;;;;;;;1.90;99.90;;;;;;5055055;28;20359;-68
2022/03/18 06:45:52;;;;;;;;;;;2.00;99.90;;;;;;5070542;28;20019;-70
2022/03/18 06:48:18;;;;;;;;;;;;;;;;;;5068303;28;19920;-69
2022/03/18 06:50:43;;;;;;;;;;;3.40;99.90;;;;;;5052304;28;19930;-69
2022/03/18 06:53:09;;;;;;;;;;;4.20;99.90;;;;;;5063118;28;19921;-68
2022/03/18 06:55:35;;;;;;;;;;;5.20;99.90;;;;;;5066882;28;19974;-68
2022/03/18 06:58:01;;;;;;;;;;;6.00;99.90;;;;;;5062517;28;19928;-68
2022/03/18 07:00:27;;;;;;;;;;;6.60;99.90;;;;;;5064143;28;19928;-71
2022/03/18 07:02:52;;;;;;;;;;;7.20;99.90;;;;;;5058263;28;19944;-69
2022/03/18 07:05:18;;;;;;;;;;;7.70;99.90;;;;;;5063028;28;19925;-69
2022/03/18 07:07:43;;;;;;;;;;;8.30;99.90;;;;;;5068184;28;20389;-68
2022/03/18 07:10:11;;;;;;;;;;;8.50;99.90;;;;;;5066773;28;20031;-68
2022/03/18 07:12:36;;;;;;;;;;;8.80;99.90;;;;;;5041317;28;19964;-69
2022/03/18 07:15:02;;;;;;;;;;;8.40;99.90;;;;;;5057084;28;19975;-69
2022/03/18 07:20:13;;;;;;;;;;;7.50;99.90;;;;;;5056537;28;20016;-69
2022/03/18 07:22:38;;;;;;;;;;;7.20;99.90;;;;;;5063977;28;20023;-70
2022/03/18 07:25:04;;;;;;;;;;;6.90;99.90;;;;;;5061617;28;20007;-70
2022/03/18 07:27:30;;;;;;;;;;;6.70;99.90;;;;;;5053163;28;20275;-70
2022/03/18 07:29:55;;;;;;;;;;;6.50;99.90;;;;;;5056418;28;19974;-68
2022/03/18 07:32:20;;;;;;;;;;;6.40;99.90;;;;;;5059114;28;19921;-69
2022/03/18 07:34:46;;;;;;;;;;;6.20;99.90;;;;;;5065841;28;19983;-68
2022/03/18 07:37:11;;;;;;;;;;;6.10;99.90;;;;;;5066347;28;19927;-68
2022/03/18 07:39:37;;;;;;;;;;;6.30;99.90;;;;;;5065993;28;19920;-68
2022/03/18 07:42:04;;;;;;;;;;;6.40;99.90;;;;;;5069689;28;20370;-68
2022/03/18 07:44:29;;;;;;;;;;;6.30;99.90;;;;;;5051339;28;20406;-69
2022/03/18 07:46:54;;;;;;;;;;;6.40;99.90;;;;;;5056452;28;19921;-69
2022/03/18 07:49:21;;;;;;;;;;;6.40;99.90;;;;;;5056107;28;20367;-71
2022/03/18 07:51:46;;;;;;;;;;;6.50;99.90;;;;;;5022931;28;20031;-71
2022/03/18 07:54:12;;;;;;;;;;;6.60;99.90;;;;;;5065440;28;20345;-71
2022/03/18 07:56:37;;;;;;;;;;;6.60;99.90;;;;;;5045039;28;20320;-72
2022/03/18 07:59:03;;;;;;;;;;;6.70;99.90;;;;;;5064033;28;19920;-73
2022/03/18 08:01:29;;;;;;;;;;;6.80;99.90;;;;;;5060643;28;19921;-71
2022/03/18 08:03:54;;;;;;;;;;;6.90;99.90;;;;;;5056055;28;19920;-75
2022/03/18 08:06:21;;;;;;;;;;;7.00;99.90;;;;;;5066562;28;20643;-69
2022/03/18 08:08:46;;;;;;;;;;;7.00;99.90;;;;;;5060150;28;19964;-71
2022/03/18 08:11:12;;;;;;;;;;;7.10;99.90;;;;;;5065162;28;20002;-70
2022/03/18 08:13:38;;;;;;;;;;;7.20;99.90;;;;;;5056848;28;20019;-69
2022/03/18 08:16:03;;;;;;;;;;;7.20;99.90;;;;;;5045924;28;19928;-73
2022/03/18 08:18:29;;;;;;;;;;;7.30;99.90;;;;;;5065412;28;19959;-74
2022/03/18 08:20:54;;;;;;;;;;;7.30;99.90;;;;;;5057734;28;19929;-71
2022/03/18 08:23:20;;;;;;;;;;;7.40;99.90;;;;;;5055923;28;19939;-73
2022/03/18 08:25:45;;;;;;;;;;;7.50;99.90;;;;;;5053578;28;19931;-73
2022/03/18 08:28:11;;;;;;;;;;;7.60;99.90;;;;;;5056742;28;20388;-73
2022/03/18 08:30:36;;;;;;;;;;;7.70;99.90;;;;;;5051359;28;19921;-73
2022/03/18 08:33:02;;;;;;;;;;;7.80;99.90;;;;;;5052756;28;20584;-73
2022/03/18 08:35:28;;;;;;;;;;;8.00;99.90;;;;;;5059874;28;19928;-73
2022/03/18 08:37:57;;;;;;;;;;;8.10;99.90;;;;;;5060818;28;19940;-73
2022/03/18 08:40:26;;;;;;;;;;;8.20;99.90;;;;;;5066414;28;19920;-73
2022/03/18 08:42:52;;;;;;;;;;;8.30;99.90;;;;;;5037621;28;20281;-74
2022/03/18 08:45:18;;;;;;;;;;;8.30;99.90;;;;;;5020022;28;19955;-75
2022/03/18 08:47:44;;;;;;;;;;;8.40;99.90;;;;;;5068806;28;20422;-72
2022/03/18 08:50:10;;;;;;;;;;;8.60;99.90;;;;;;5067027;28;19930;-72
2022/03/18 08:52:36;;;;;;;;;;;8.70;99.90;;;;;;5055660;28;20017;-72
2022/03/18 08:55:03;;;;;;;;;;;;;;;;;;5037977;28;20299;-72
2022/03/18 08:57:31;;;;;;;;;;;8.90;99.90;;;;;;5057167;28;19928;-72
2022/03/18 08:59:56;;;;;;;;;;;9.00;99.90;;;;;;5044883;28;19920;-70
2022/03/18 09:02:22;;;;;;;;;;;9.10;99.90;;;;;;5064450;28;20065;-72
2022/03/18 09:04:51;;;;;;;;;;;9.20;99.90;;;;;;5071507;28;19920;-71
2022/03/18 09:07:17;;;;;;;;;;;9.40;99.90;;;;;;5066827;28;20010;-73
2022/03/18 09:09:42;;;;;;;;;;;9.50;99.90;;;;;;5047954;28;19982;-72
2022/03/18 09:12:08;;;;;;;;;;;9.60;99.90;;;;;;5048133;28;19920;-73
2022/03/18 09:14:34;;;;;;;;;;;;;;;;;;5063895;28;20075;-74
2022/03/18 09:16:59;;;;;;;;;;;10.20;99.90;;;;;;5062510;28;19928;-73
2022/03/18 09:19:25;;;;;;;;;;;10.10;99.90;;;;;;5043930;28;19920;-72
2022/03/18 09:21:50;;;;;;;;;;;10.10;99.90;;;;;;5060116;28;19928;-73
2022/03/18 09:24:16;;;;;;;;;;;10.20;99.90;;;;;;5062311;28;20352;-72
2022/03/18 09:26:42;;;;;;;;;;;10.20;99.90;;;;;;5054401;28;20291;-73
2022/03/18 09:29:07;;;;;;;;;;;10.30;99.90;;;;;;5057909;28;19928;-74
2022/03/18 09:31:33;;;;;;;;;;;10.40;99.90;;;;;;5057372;28;19932;-73
2022/03/18 09:33:58;;;;;;;;;;;10.50;99.90;;;;;;5062899;28;20422;-72
2022/03/18 09:36:24;;;;;;;;;;;10.70;99.90;;;;;;5061558;28;19920;-72
2022/03/18 09:38:50;;;;;;;;;;;10.70;99.90;;;;;;5068474;28;19924;-69
2022/03/18 09:41:16;;;;;;;;;;;10.70;99.90;;;;;;5066446;28;20055;-72
2022/03/18 09:43:42;;;;;;;;;;;10.80;99.90;;;;;;5063038;28;20417;-74
2022/03/18 09:46:12;;;;;;;;;;;10.70;99.90;;;;;;5061109;28;19952;-73
2022/03/18 09:48:38;;;;;;;;;;;10.80;99.90;;;;;;5058915;28;19930;-72
2022/03/18 09:51:04;;;;;;;;;;;11.00;99.90;;;;;;5055167;28;19925;-75
2022/03/18 09:53:29;;;;;;;;;;;11.00;99.90;;;;;;5055951;28;19932;-71
2022/03/18 09:55:54;;;;;;;;;;;11.00;99.90;;;;;;5074312;28;19920;-71
2022/03/18 09:58:21;;;;;;;;;;;11.10;99.90;;;;;;5047466;28;19984;-72
2022/03/18 10:00:47;;;;;;;;;;;11.20;99.90;;;;;;5060287;28;20389;-70
2022/03/18 10:03:16;;;;;;;;;;;11.40;99.90;;;;;;5055253;28;19925;-72
2022/03/18 10:05:59;;;;;;;;;;;11.50;99.90;;;;;;5050135;28;19931;-73
2022/03/18 10:08:25;;;;;;;;;;;11.30;99.90;;;;;;5061343;28;19921;-71
2022/03/18 10:10:51;;;;;;;;;;;11.70;99.90;;;;;;5057831;28;19920;-74
2022/03/18 10:13:18;;;;;;;;;;;11.60;99.90;;;;;;5069291;28;19920;-74
2022/03/18 10:15:44;;;;;;;;;;;11.70;99.90;;;;;;5058322;28;19955;-74
2022/03/18 10:18:10;;;;;;;;;;;11.80;99.90;;;;;;5068035;28;20422;-74
2022/03/18 10:20:40;;;;;;;;;;;11.80;99.90;;;;;;5064286;28;20029;-72
2022/03/18 10:23:15;;;;;;;;;;;11.90;99.90;;;;;;5043255;28;20003;-69
2022/03/18 10:25:48;;;;;;;;;;;12.10;99.90;;;;;;5064801;28;19920;-69
2022/03/18 10:28:13;;;;;;;;;;;12.10;99.90;;;;;;5069391;28;19928;-69
2022/03/18 10:30:39;;;;;;;;;;;12.10;99.90;;;;;;5063208;28;20372;-70
2022/03/18 10:33:06;;;;;;;;;;;12.20;99.90;;;;;;5063940;28;19921;-68
2022/03/18 10:38:27;;;;;;;;;;;12.40;99.90;;;;;;5063516;28;20012;-70
2022/03/18 10:40:53;;;;;;;;;;;12.50;99.90;;;;;;5067991;28;19943;-69
2022/03/18 10:43:20;;;;;;;;;;;12.60;99.90;;;;;;5061853;28;19921;-70
2022/03/18 10:46:00;;;;;;;;;;;12.70;99.90;;;;;;5060219;28;20045;-67
2022/03/18 10:48:26;;;;;;;;;;;12.70;99.90;;;;;;5066741;28;19920;-68
2022/03/18 10:51:04;;;;;;;;;;;12.70;99.90;;;;;;5070129;28;20237;-69
2022/03/18 10:53:31;;;;;;;;;;;12.80;99.90;;;;;;5069979;28;19927;-68
2022/03/18 10:56:03;;;;;;;;;;;12.90;99.90;;;;;;5064838;28;19924;-69
2022/03/18 10:58:32;;;;;;;;;;;12.90;99.90;;;;;;5058723;28;20066;-68
2022/03/18 11:00:59;;;;;;;;;;;12.90;99.90;;;;;;5059198;28;19970;-68
2022/03/18 11:03:25;;;;;;;;;;;12.90;99.90;;;;;;5056288;28;20375;-69
2022/03/18 11:05:51;;;;;;;;;;;13.10;99.90;;;;;;5060739;28;19920;-70
2022/03/18 11:08:27;;;;;;;;;;;13.20;99.90;;;;;;5059391;28;19932;-69
2022/03/18 11:13:53;;;;;;;;;;;13.30;99.90;;;;;;5054548;28;19921;-70
2022/03/18 11:16:21;;;;;;;;;;;13.50;99.90;;;;;;5061752;28;19920;-70
2022/03/18 11:18:47;;;;;;;;;;;13.40;99.90;;;;;;5058566;28;19920;-70
2022/03/18 11:21:13;;;;;;;;;;;13.60;99.90;;;;;;5071535;28;20016;-71
2022/03/18 11:23:40;;;;;;;;;;;13.70;99.90;;;;;;5062132;28;20332;-71
2022/03/18 11:26:06;;;;;;;;;;;13.80;99.90;;;;;;5056623;28;19921;-72
2022/03/18 11:28:31;;;;;;;;;;;13.70;99.90;;;;;;5039502;28;19932;-71
2022/03/18 11:31:04;;;;;;;;;;;13.60;99.90;;;;;;5065061;28;19920;-72
2022/03/18 11:33:29;;;;;;;;;;;13.70;99.90;;;;;;5060885;28;20048;-72
2022/03/18 11:35:55;;;;;;;;;;;13.50;99.90;;;;;;5060670;28;20035;-72
2022/03/18 11:38:30;;;;;;;;;;;13.70;99.90;;;;;;5066738;28;19925;-72
2022/03/18 11:40:59;;;;;;;;;;;13.80;99.90;;;;;;5052242;28;19928;-71
2022/03/18 11:43:48;;;;;;;;;;;13.80;99.90;;;;;;5051498;28;20325;-72
2022/03/18 11:46:13;;;;;;;;;;;14.00;99.90;;;;;;5058579;28;19924;-72
2022/03/18 11:49:05;;;;;;;;;;;14.20;99.90;;;;;;5043758;28;19931;-71
2022/03/18 11:51:32;;;;;;;;;;;14.10;99.90;;;;;;5054277;28;20278;-72
2022/03/18 11:54:05;;;;;;;;;;;14.20;99.90;;;;;;5056573;28;19920;-72
2022/03/18 11:56:41;;;;;;;;;;;14.30;99.90;;;;;;5040393;28;19924;-71
2022/03/18 11:59:29;;;;;;;;;;;14.40;99.90;;;;;;5066285;28;19935;-71
2022/03/18 12:01:55;;;;;;;;;;;14.40;99.90;;;;;;5053916;28;19993;-71
2022/03/18 12:04:32;;;;;;;;;;;14.40;99.90;;;;;;5055116;28;19995;-71
2022/03/18 12:07:18;;;;;;;;;;;14.40;99.90;;;;;;5045477;28;20022;-71
2022/03/18 12:09:53;;;;;;;;;;;14.50;99.90;;;;;;5058956;28;19932;-71
2022/03/18 12:12:24;;;;;;;;;;;14.60;99.90;;;;;;5062531;28;19928;-70
2022/03/18 12:14:51;;;;;;;;;;;14.70;99.90;;;;;;5062246;28;20260;-71
2022/03/18 12:17:17;;;;;;;;;;;14.60;99.90;;;;;;5047419;28;19967;-71
2022/03/18 12:19:49;;;;;;;;;;;14.60;99.90;;;;;;5061674;28;19963;-71
2022/03/18 12:22:15;;;;;;;;;;;14.60;99.90;;;;;;5043721;28;20059;-71
2022/03/18 12:24:40;;;;;;;;;;;14.60;99.90;;;;;;5060718;28;20426;-71
2022/03/18 12:27:06;;;;;;;;;;;14.80;99.90;;;;;;5071843;28;20367;-71
2022/03/18 12:29:31;;;;;;;;;;;14.80;99.90;;;;;;5059433;28;19921;-70
2022/03/18 12:32:01;;;;;;;;;;;14.70;99.90;;;;;;5067528;28;19977;-71
2022/03/18 12:34:27;;;;;;;;;;;14.80;99.90;;;;;;5063575;28;19921;-71
2022/03/18 12:36:52;;;;;;;;;;;14.80;99.90;;;;;;5066736;28;19925;-71
2022/03/18 12:39:18;;;;;;;;;;;14.80;99.90;;;;;;5062929;28;20293;-70
2022/03/18 12:41:44;;;;;;;;;;;15.10;99.90;;;;;;5071789;28;20010;-71
2022/03/18 12:44:10;;;;;;;;;;;15.20;99.90;;;;;;5067610;28;19931;-70
2022/03/18 12:46:36;;;;;;;;;;;15.30;99.90;;;;;;5070884;28;20298;-71
2022/03/18 12:49:01;;;;;;;;;;;15.10;99.90;;;;;;5074560;28;20209;-71
2022/03/18 12:51:27;;;;;;;;;;;15.00;99.90;;;;;;5039936;28;19921;-71
2022/03/18 12:53:56;;;;;;;;;;;15.20;99.90;;;;;;5075565;28;20030;-71
2022/03/18 12:56:22;;;;;;;;;;;15.20;99.90;;;;;;5069348;28;19921;-71
2022/03/18 12:58:47;;;;;;;;;;;15.10;99.90;;;;;;5057183;28;19959;-71
2022/03/18 13:01:13;;;;;;;;;;;15.20;99.90;;;;;;5067900;28;20360;-72
2022/03/18 13:03:48;;;;;;;;;;;15.10;99.90;;;;;;5075423;28;19920;-73
2022/03/18 13:06:22;;;;;;;;;;;15.10;99.90;;;;;;5052141;28;19954;-72
2022/03/18 13:08:54;;;;;;;;;;;15.00;99.10;;;;;;5055171;28;19928;-74
2022/03/18 13:11:20;;;;;;;;;;;15.30;99.90;;;;;;5067855;28;20295;-73
2022/03/18 13:13:46;;;;;;;;;;;15.30;96.10;;;;;;5073410;28;19928;-73
2022/03/18 13:16:14;;;;;;;;;;;15.50;95.80;;;;;;5060080;28;19929;-73
2022/03/18 13:18:48;;;;;;;;;;;15.50;93.60;;;;;;5061549;28;19996;-75
2022/03/18 13:21:13;;;;;;;;;;;15.50;90.40;;;;;;5055016;28;20349;-74
2022/03/18 13:23:40;;;;;;;;;;;15.20;90.00;;;;;;5061539;28;19924;-74
2022/03/18 13:26:06;;;;;;;;;;;15.30;92.20;;;;;;5055321;28;19939;-74
2022/03/18 13:28:31;;;;;;;;;;;15.30;94.10;;;;;;5068730;28;20004;-74
2022/03/18 13:33:43;;;;;;;;;;;15.30;94.90;;;;;;5065829;28;20085;-75
2022/03/18 13:36:25;;;;;;;;;;;15.30;91.30;;;;;;5059466;28;19920;-75
2022/03/18 13:38:52;;;;;;;;;;;15.40;91.20;;;;;;5069358;28;19921;-73
2022/03/18 13:41:18;;;;;;;;;;;15.50;88.00;;;;;;5067631;28;19920;-74
2022/03/18 13:43:46;;;;;;;;;;;15.60;83.90;;;;;;5069063;28;19931;-74
2022/03/18 13:46:12;;;;;;;;;;;15.60;83.80;;;;;;5068793;28;19927;-73
2022/03/18 13:48:38;;;;;;;;;;;15.70;83.30;;;;;;5054356;28;19968;-73
2022/03/18 13:51:06;;;;;;;;;;;15.60;83.00;;;;;;5062558;28;19924;-74
2022/03/18 13:53:32;;;;;;;;;;;15.80;83.60;;;;;;5063490;28;20291;-73
2022/03/18 13:55:59;;;;;;;;;;;15.80;82.80;;;;;;5056684;28;19920;-73
2022/03/18 13:58:26;;;;;;;;;;;16.00;82.60;;;;;;5068376;28;19924;-73
2022/03/18 14:00:52;;;;;;;;;;;15.90;79.30;;;;;;5053895;28;19920;-72
2022/03/18 14:03:17;;;;;;;;;;;15.80;82.50;;;;;;5054166;28;20389;-72
2022/03/18 14:05:46;;;;;;;;;;;15.70;83.50;;;;;;5059050;28;19931;-73
2022/03/18 14:08:25;;;;;;;;;;;15.60;83.80;;;;;;5073171;28;20233;-73
2022/03/18 14:10:50;;;;;;;;;;;15.80;87.00;;;;;;5060173;28;19932;-73
2022/03/18 14:13:16;;;;;;;;;;;15.90;86.90;;;;;;5059762;28;19920;-74
2022/03/18 14:15:49;;;;;;;;;;;16.20;86.80;;;;;;5061337;28;19932;-74
2022/03/18 14:18:16;;;;;;;;;;;16.30;88.00;;;;;;5059979;28;20018;-73
2022/03/18 14:20:48;;;;;;;;;;;16.00;83.50;;;;;;5062779;28;20398;-73
2022/03/18 14:23:20;;;;;;;;;;;16.10;85.40;;;;;;5063246;28;19924;-73
2022/03/18 14:25:47;;;;;;;;;;;15.90;81.10;;;;;;5061648;28;20635;-74
2022/03/18 14:28:20;;;;;;;;;;;15.90;79.70;;;;;;5061131;28;19920;-74
2022/03/18 14:30:47;;;;;;;;;;;15.80;80.90;;;;;;5061249;28;20027;-74
2022/03/18 14:33:13;;;;;;;;;;;15.70;82.30;;;;;;5061881;28;20007;-73
2022/03/18 14:35:38;;;;;;;;;;;15.80;83.60;;;;;;5061999;28;19979;-73
2022/03/18 14:38:04;;;;;;;;;;;15.80;82.40;;;;;;5061792;28;20335;-73
2022/03/18 14:40:29;;;;;;;;;;;16.00;80.80;;;;;;5060892;28;19927;-73
2022/03/18 14:42:55;;;;;;;;;;;16.00;79.40;;;;;;5059486;28;19920;-73